createdAt,value
2017-11-26T05:00:29.956Z,3.04
2017-11-26T05:00:55.423Z,3.1
2017-11-26T05:01:20.897Z,3.08
2017-11-26T05:01:46.404Z,3.07
2017-11-26T05:02:11.911Z,3.03
2017-11-26T05:02:37.399Z,3.1
2017-11-26T05:03:02.900Z,3.07
2017-11-26T05:03:28.401Z,3.05
2017-11-26T05:03:53.923Z,3.11
2017-11-26T05:04:19.396Z,3.07
2017-11-26T05:04:44.869Z,3.13
2017-11-26T05:05:10.362Z,3.1
2017-11-26T05:05:35.869Z,3.11
2017-11-26T05:06:01.319Z,3.08
2017-11-26T05:06:26.817Z,3.14
2017-11-26T05:06:52.280Z,3.04
2017-11-26T05:07:17.753Z,3.07
2017-11-26T05:07:43.243Z,3.05
2017-11-26T05:08:08.706Z,3.03
2017-11-26T05:08:34.196Z,3
2017-11-26T05:08:59.683Z,2.97
2017-11-26T05:09:25.162Z,2.98
2017-11-26T05:09:50.648Z,3.1
2017-11-26T05:10:16.130Z,3
2017-11-26T05:10:41.632Z,3.07
2017-11-26T05:11:07.126Z,3.04
2017-11-26T05:11:32.604Z,3.05
2017-11-26T05:11:58.084Z,3.03
2017-11-26T05:12:23.615Z,3
2017-11-26T05:12:49.076Z,3
2017-11-26T05:13:14.564Z,2.97
2017-11-26T05:13:40.082Z,2.89
2017-11-26T05:14:05.574Z,2.9
2017-11-26T05:14:31.075Z,2.89
2017-11-26T05:14:56.533Z,2.87
2017-11-26T05:15:22.012Z,2.9
2017-11-26T05:15:47.508Z,2.9
2017-11-26T05:16:13.025Z,2.89
2017-11-26T05:16:38.547Z,2.89
2017-11-26T05:17:04.050Z,2.89
2017-11-26T05:17:29.529Z,2.8
2017-11-26T05:17:55.030Z,2.83
2017-11-26T05:18:20.555Z,2.86
2017-11-26T05:18:46.023Z,2.86
2017-11-26T05:19:11.519Z,2.82
2017-11-26T05:19:37.051Z,2.79
2017-11-26T05:20:02.528Z,2.8
2017-11-26T05:20:28.022Z,2.8
2017-11-26T05:20:53.511Z,2.79
2017-11-26T05:21:19.059Z,2.79
2017-11-26T05:21:44.595Z,2.86
2017-11-26T05:22:10.079Z,2.82
2017-11-26T05:22:35.584Z,2.79
2017-11-26T05:23:01.072Z,2.82
2017-11-26T05:23:26.536Z,2.71
2017-11-26T05:23:52.035Z,2.68
2017-11-26T05:24:17.490Z,2.71
2017-11-26T05:24:42.972Z,2.72
2017-11-26T05:25:08.500Z,2.67
2017-11-26T05:25:33.980Z,2.69
2017-11-26T05:25:59.452Z,2.71
2017-11-26T05:26:24.953Z,2.68
2017-11-26T05:26:50.421Z,2.71
2017-11-26T05:27:15.974Z,2.67
2017-11-26T05:27:41.469Z,2.67
2017-11-26T05:28:06.986Z,2.65
2017-11-26T05:28:32.478Z,2.67
2017-11-26T05:28:57.987Z,2.64
2017-11-26T05:29:23.496Z,2.68
2017-11-26T05:29:49.024Z,2.64
2017-11-26T05:30:14.503Z,2.68
2017-11-26T05:30:39.984Z,2.61
2017-11-26T05:31:05.530Z,2.62
2017-11-26T05:31:30.998Z,2.61
2017-11-26T05:31:56.462Z,2.64
2017-11-26T05:32:21.948Z,2.65
2017-11-26T05:32:47.446Z,2.6
2017-11-26T05:33:12.913Z,2.62
2017-11-26T05:33:38.375Z,2.54
2017-11-26T05:34:03.828Z,2.54
2017-11-26T05:34:29.330Z,2.62
2017-11-26T05:34:54.807Z,2.62
2017-11-26T05:35:20.297Z,2.67
2017-11-26T05:35:45.814Z,2.62
2017-11-26T05:36:11.291Z,2.6
2017-11-26T05:36:36.783Z,2.56
2017-11-26T05:37:02.263Z,2.6
2017-11-26T05:37:27.775Z,2.61
2017-11-26T05:37:53.238Z,2.65
2017-11-26T05:38:18.769Z,2.62
2017-11-26T05:38:44.244Z,2.65
2017-11-26T05:39:09.737Z,2.62
2017-11-26T05:39:35.247Z,2.62
2017-11-26T05:40:00.748Z,2.61
2017-11-26T05:40:26.272Z,2.6
2017-11-26T05:40:51.735Z,2.61
2017-11-26T05:41:17.221Z,2.61
2017-11-26T05:41:42.711Z,2.62
2017-11-26T05:42:08.196Z,2.62
2017-11-26T05:42:33.709Z,2.62
2017-11-26T05:42:59.228Z,2.65
2017-11-26T05:43:24.697Z,2.62
2017-11-26T05:43:50.160Z,2.61
2017-11-26T05:44:15.651Z,2.6
2017-11-26T05:44:41.148Z,2.54
2017-11-26T05:45:06.640Z,2.62
2017-11-26T05:45:32.103Z,2.65
2017-11-26T05:45:57.607Z,2.61
2017-11-26T05:46:23.106Z,2.64
2017-11-26T05:46:48.596Z,2.62
2017-11-26T05:47:14.089Z,2.62
2017-11-26T05:47:39.576Z,2.64
2017-11-26T05:48:05.026Z,2.57
2017-11-26T05:48:30.555Z,2.65
2017-11-26T05:48:56.045Z,2.61
2017-11-26T05:49:21.597Z,2.6
2017-11-26T05:49:47.073Z,2.61
2017-11-26T05:50:12.552Z,2.61
2017-11-26T05:50:38.055Z,2.65
2017-11-26T05:51:03.591Z,2.62
2017-11-26T05:51:29.087Z,2.62
2017-11-26T05:51:54.589Z,2.64
2017-11-26T05:52:20.096Z,2.6
2017-11-26T05:52:45.554Z,2.67
2017-11-26T05:53:11.060Z,2.6
2017-11-26T05:53:36.505Z,2.62
2017-11-26T05:54:01.995Z,2.6
2017-11-26T05:54:27.488Z,2.56
2017-11-26T05:54:53.005Z,2.64
2017-11-26T05:55:18.493Z,2.62
2017-11-26T05:55:43.970Z,2.57
2017-11-26T05:56:09.471Z,2.65
2017-11-26T05:56:35.001Z,2.6
2017-11-26T05:57:00.476Z,2.57
2017-11-26T05:57:26.007Z,2.57
2017-11-26T05:57:51.492Z,2.56
2017-11-26T05:58:16.987Z,2.64
2017-11-26T05:58:42.483Z,2.64
2017-11-26T05:59:07.990Z,2.56
2017-11-26T05:59:33.492Z,2.67
2017-11-26T05:59:59.009Z,2.62
2017-11-26T06:00:24.497Z,2.6
2017-11-26T06:00:49.998Z,2.62
2017-11-26T06:01:15.509Z,2.6
2017-11-26T06:01:40.978Z,2.68
2017-11-26T06:02:06.474Z,2.64
2017-11-26T06:02:31.951Z,2.64
2017-11-26T06:02:57.449Z,2.62
2017-11-26T06:03:22.978Z,2.57
2017-11-26T06:03:48.459Z,2.62
2017-11-26T06:04:13.952Z,2.65
2017-11-26T06:04:39.455Z,2.64
2017-11-26T06:05:04.896Z,2.67
2017-11-26T06:05:30.364Z,2.68
2017-11-26T06:05:55.875Z,2.71
2017-11-26T06:06:21.377Z,2.68
2017-11-26T06:06:46.873Z,2.69
2017-11-26T06:07:12.400Z,2.74
2017-11-26T06:07:37.914Z,2.71
2017-11-26T06:08:03.392Z,2.79
2017-11-26T06:08:28.870Z,2.79
2017-11-26T06:08:54.409Z,2.72
2017-11-26T06:09:19.899Z,2.72
2017-11-26T06:09:45.377Z,2.79
2017-11-26T06:10:10.865Z,2.82
2017-11-26T06:10:36.353Z,2.8
2017-11-26T06:11:01.890Z,2.82
2017-11-26T06:11:27.367Z,2.83
2017-11-26T06:11:52.867Z,2.82
2017-11-26T06:12:18.339Z,2.82
2017-11-26T06:12:43.855Z,2.83
2017-11-26T06:13:09.347Z,2.86
2017-11-26T06:13:34.836Z,2.85
2017-11-26T06:14:00.337Z,2.8
2017-11-26T06:14:25.889Z,2.79
2017-11-26T06:14:51.350Z,2.89
2017-11-26T06:15:16.825Z,2.86
2017-11-26T06:15:42.331Z,2.83
2017-11-26T06:16:07.838Z,2.89
2017-11-26T06:16:33.325Z,2.82
2017-11-26T06:16:58.803Z,2.9
2017-11-26T06:17:24.298Z,2.92
2017-11-26T06:17:49.784Z,2.92
2017-11-26T06:18:15.237Z,2.9
2017-11-26T06:18:40.708Z,2.93
2017-11-26T06:19:06.201Z,2.97
2017-11-26T06:19:31.711Z,2.89
2017-11-26T06:19:57.233Z,2.95
2017-11-26T06:20:22.737Z,2.98
2017-11-26T06:20:48.200Z,2.95
2017-11-26T06:21:13.705Z,2.95
2017-11-26T06:21:39.188Z,3
2017-11-26T06:22:04.694Z,2.92
2017-11-26T06:22:30.194Z,3
2017-11-26T06:22:55.687Z,2.92
2017-11-26T06:23:21.155Z,2.97
2017-11-26T06:23:46.618Z,2.87
2017-11-26T06:24:12.096Z,2.9
2017-11-26T06:24:37.643Z,3
2017-11-26T06:25:03.126Z,3
2017-11-26T06:25:28.583Z,2.93
2017-11-26T06:25:54.094Z,3
2017-11-26T06:26:19.566Z,2.98
2017-11-26T06:26:45.056Z,2.9
2017-11-26T06:27:10.600Z,2.97
2017-11-26T06:27:36.087Z,2.89
2017-11-26T06:28:01.563Z,2.93
2017-11-26T06:28:27.051Z,2.93
2017-11-26T06:28:52.520Z,2.85
2017-11-26T06:29:18.006Z,2.86
2017-11-26T06:29:43.518Z,3
2017-11-26T06:30:08.997Z,2.92
2017-11-26T06:30:34.501Z,2.93
2017-11-26T06:31:00.034Z,2.9
2017-11-26T06:31:25.706Z,2.92
2017-11-26T06:31:51.216Z,2.93
2017-11-26T06:32:16.680Z,2.93
2017-11-26T06:32:42.198Z,2.89
2017-11-26T06:33:07.699Z,2.9
2017-11-26T06:33:33.178Z,2.93
2017-11-26T06:33:58.690Z,2.89
2017-11-26T06:34:24.172Z,2.92
2017-11-26T06:34:49.719Z,2.9
2017-11-26T06:35:15.227Z,2.9
2017-11-26T06:35:40.719Z,2.95
2017-11-26T06:36:06.225Z,2.92
2017-11-26T06:36:31.707Z,2.98
2017-11-26T06:36:57.152Z,2.89
2017-11-26T06:37:22.637Z,2.93
2017-11-26T06:37:48.146Z,2.92
2017-11-26T06:38:13.694Z,2.95
2017-11-26T06:38:39.221Z,2.89
2017-11-26T06:39:04.762Z,2.89
2017-11-26T06:39:30.213Z,2.92
2017-11-26T06:39:55.698Z,2.89
2017-11-26T06:40:21.192Z,2.89
2017-11-26T06:40:46.705Z,2.97
2017-11-26T06:41:12.199Z,2.92
2017-11-26T06:41:37.697Z,2.89
2017-11-26T06:42:03.182Z,2.83
2017-11-26T06:42:28.670Z,2.89
2017-11-26T06:42:54.146Z,2.95
2017-11-26T06:43:19.634Z,2.93
2017-11-26T06:43:45.126Z,2.92
2017-11-26T06:44:10.654Z,2.97
2017-11-26T06:44:36.150Z,3
2017-11-26T06:45:01.623Z,2.95
2017-11-26T06:45:27.105Z,2.89
2017-11-26T06:45:52.632Z,3.03
2017-11-26T06:46:18.064Z,3
2017-11-26T06:46:43.548Z,2.92
2017-11-26T06:47:09.030Z,3.04
2017-11-26T06:47:34.504Z,3.01
2017-11-26T06:48:00.020Z,2.93
2017-11-26T06:48:25.479Z,2.98
2017-11-26T06:48:50.955Z,2.89
2017-11-26T06:49:16.422Z,3
2017-11-26T06:49:41.944Z,2.93
2017-11-26T06:50:07.458Z,2.9
2017-11-26T06:50:32.924Z,2.95
2017-11-26T06:50:58.435Z,3.04
2017-11-26T06:51:23.904Z,3.04
2017-11-26T06:51:49.417Z,3.01
2017-11-26T06:52:14.886Z,3.04
2017-11-26T06:52:40.391Z,3.01
2017-11-26T06:53:05.874Z,3.04
2017-11-26T06:53:31.361Z,3.08
2017-11-26T06:53:56.860Z,3.07
2017-11-26T06:54:22.384Z,3.03
2017-11-26T06:54:47.857Z,3.04
2017-11-26T06:55:13.391Z,3.05
2017-11-26T06:55:38.869Z,3.1
2017-11-26T06:56:04.342Z,3.05
2017-11-26T06:56:29.864Z,3.05
2017-11-26T06:56:55.381Z,3.11
2017-11-26T06:57:20.868Z,3.08
2017-11-26T06:57:46.369Z,3.19
2017-11-26T06:58:11.838Z,3.07
2017-11-26T06:58:37.333Z,3.11
2017-11-26T06:59:02.882Z,3.13
2017-11-26T06:59:28.271Z,3.13
2017-11-26T06:59:53.762Z,3.11
2017-11-26T07:00:19.242Z,3.18
2017-11-26T07:00:44.744Z,3.18
2017-11-26T07:01:10.248Z,3.03
2017-11-26T07:01:35.690Z,3.08
2017-11-26T07:02:01.176Z,3.04
2017-11-26T07:02:26.629Z,3.08
2017-11-26T07:02:52.139Z,3.05
2017-11-26T07:03:17.627Z,3.13
2017-11-26T07:03:43.086Z,3.07
2017-11-26T07:04:08.606Z,3.03
2017-11-26T07:04:34.100Z,3.1
2017-11-26T07:04:59.577Z,3.04
2017-11-26T07:05:25.082Z,3.13
2017-11-26T07:05:50.552Z,3.11
2017-11-26T07:06:16.075Z,3.04
2017-11-26T07:06:41.558Z,3.11
2017-11-26T07:07:07.121Z,3.07
2017-11-26T07:07:32.614Z,3.18
2017-11-26T07:07:58.084Z,3.07
2017-11-26T07:08:23.550Z,3.03
2017-11-26T07:08:49.034Z,3.07
2017-11-26T07:09:14.532Z,3.1
2017-11-26T07:09:39.990Z,3.18
2017-11-26T07:10:05.491Z,3.18
2017-11-26T07:10:30.970Z,3.21
2017-11-26T07:10:56.460Z,3.13
2017-11-26T07:11:21.972Z,3.16
2017-11-26T07:11:47.451Z,3.18
2017-11-26T07:12:12.929Z,3.13
2017-11-26T07:12:38.417Z,3.14
2017-11-26T07:13:03.891Z,3.18
2017-11-26T07:13:29.348Z,3.22
2017-11-26T07:13:54.818Z,3.14
2017-11-26T07:14:20.305Z,3.18
2017-11-26T07:14:45.805Z,3.14
2017-11-26T07:15:11.330Z,3.26
2017-11-26T07:15:36.842Z,3.21
2017-11-26T07:16:02.375Z,3.23
2017-11-26T07:16:27.858Z,3.23
2017-11-26T07:16:53.333Z,3.21
2017-11-26T07:17:18.873Z,3.26
2017-11-26T07:17:44.385Z,3.29
2017-11-26T07:18:09.895Z,3.29
2017-11-26T07:18:35.351Z,3.28
2017-11-26T07:19:00.798Z,3.28
2017-11-26T07:19:26.249Z,3.31
2017-11-26T07:19:51.750Z,3.26
2017-11-26T07:20:17.258Z,3.25
2017-11-26T07:20:42.759Z,3.29
2017-11-26T07:21:08.274Z,3.25
2017-11-26T07:21:33.751Z,3.28
2017-11-26T07:21:59.226Z,3.32
2017-11-26T07:22:24.694Z,3.32
2017-11-26T07:22:50.206Z,3.32
2017-11-26T07:23:15.656Z,3.26
2017-11-26T07:23:41.123Z,3.32
2017-11-26T07:24:06.579Z,3.36
2017-11-26T07:24:32.070Z,3.26
2017-11-26T07:24:57.541Z,3.37
2017-11-26T07:25:23.033Z,3.32
2017-11-26T07:25:48.539Z,3.32
2017-11-26T07:26:14.038Z,3.4
2017-11-26T07:26:39.484Z,3.37
2017-11-26T07:27:04.944Z,3.36
2017-11-26T07:27:30.486Z,3.25
2017-11-26T07:27:55.959Z,3.44
2017-11-26T07:28:21.489Z,3.34
2017-11-26T07:28:46.961Z,3.34
2017-11-26T07:29:12.467Z,3.41
2017-11-26T07:29:37.936Z,3.44
2017-11-26T07:30:03.410Z,3.42
2017-11-26T07:30:28.904Z,3.45
2017-11-26T07:30:54.399Z,3.42
2017-11-26T07:31:19.848Z,3.44
2017-11-26T07:31:45.321Z,3.47
2017-11-26T07:32:10.901Z,3.45
2017-11-26T07:32:36.352Z,3.51
2017-11-26T07:33:01.829Z,3.55
2017-11-26T07:33:27.309Z,3.5
2017-11-26T07:33:52.801Z,3.48
2017-11-26T07:34:18.297Z,3.5
2017-11-26T07:34:43.774Z,3.48
2017-11-26T07:35:09.264Z,3.51
2017-11-26T07:35:34.764Z,3.53
2017-11-26T07:36:00.168Z,3.51
2017-11-26T07:36:25.659Z,3.53
2017-11-26T07:36:51.116Z,3.51
2017-11-26T07:37:16.609Z,3.53
2017-11-26T07:37:42.110Z,3.59
2017-11-26T07:38:07.579Z,3.58
2017-11-26T07:38:33.047Z,3.53
2017-11-26T07:38:58.570Z,3.48
2017-11-26T07:39:24.019Z,3.56
2017-11-26T07:39:49.469Z,3.56
2017-11-26T07:40:14.947Z,3.53
2017-11-26T07:40:40.414Z,3.65
2017-11-26T07:41:05.903Z,3.5
2017-11-26T07:41:31.356Z,3.55
2017-11-26T07:41:56.831Z,3.51
2017-11-26T07:42:22.490Z,3.45
2017-11-26T07:42:47.939Z,3.53
2017-11-26T07:43:13.469Z,3.53
2017-11-26T07:43:38.921Z,3.55
2017-11-26T07:44:04.417Z,3.59
2017-11-26T07:44:29.969Z,3.59
2017-11-26T07:44:55.459Z,3.48
2017-11-26T07:45:20.928Z,3.53
2017-11-26T07:45:46.420Z,3.56
2017-11-26T07:46:11.854Z,3.55
2017-11-26T07:46:37.368Z,3.58
2017-11-26T07:47:02.865Z,3.55
2017-11-26T07:47:28.389Z,3.55
2017-11-26T07:47:53.848Z,3.47
2017-11-26T07:48:19.332Z,3.47
2017-11-26T07:48:44.808Z,3.5
2017-11-26T07:49:10.297Z,3.5
2017-11-26T07:49:35.785Z,3.5
2017-11-26T07:50:01.291Z,3.48
2017-11-26T07:50:26.759Z,3.47
2017-11-26T07:50:52.217Z,3.47
2017-11-26T07:51:17.717Z,3.51
2017-11-26T07:51:43.177Z,3.59
2017-11-26T07:52:08.632Z,3.5
2017-11-26T07:52:34.098Z,3.55
2017-11-26T07:52:59.561Z,3.51
2017-11-26T07:53:25.068Z,3.55
2017-11-26T07:53:50.590Z,3.58
2017-11-26T07:54:16.085Z,3.5
2017-11-26T07:54:41.519Z,3.48
2017-11-26T07:55:07.002Z,3.55
2017-11-26T07:55:32.471Z,3.56
2017-11-26T07:55:58.025Z,3.55
2017-11-26T07:56:23.461Z,3.5
2017-11-26T07:56:48.924Z,3.51
2017-11-26T07:57:14.379Z,3.62
2017-11-26T07:57:39.860Z,3.56
2017-11-26T07:58:05.362Z,3.59
2017-11-26T07:58:30.838Z,3.5
2017-11-26T07:58:56.371Z,3.51
2017-11-26T07:59:21.896Z,3.51
2017-11-26T07:59:47.330Z,3.69
2017-11-26T08:00:12.807Z,3.65
2017-11-26T08:00:38.354Z,3.68
2017-11-26T08:01:03.801Z,3.62
2017-11-26T08:01:29.282Z,3.73
2017-11-26T08:01:54.816Z,3.63
2017-11-26T08:02:20.269Z,3.65
2017-11-26T08:02:45.741Z,3.68
2017-11-26T08:03:11.252Z,3.65
2017-11-26T08:03:36.753Z,3.69
2017-11-26T08:04:02.215Z,3.76
2017-11-26T08:04:27.701Z,3.76
2017-11-26T08:04:53.205Z,3.69
2017-11-26T08:05:18.678Z,3.78
2017-11-26T08:05:44.116Z,3.74
2017-11-26T08:06:09.641Z,3.74
2017-11-26T08:06:35.094Z,3.81
2017-11-26T08:07:00.579Z,3.73
2017-11-26T08:07:26.073Z,3.81
2017-11-26T08:07:51.553Z,3.78
2017-11-26T08:08:17.086Z,3.78
2017-11-26T08:08:42.550Z,3.77
2017-11-26T08:09:08.032Z,3.83
2017-11-26T08:09:33.554Z,3.8
2017-11-26T08:09:59.000Z,3.87
2017-11-26T08:10:24.449Z,3.83
2017-11-26T08:10:49.992Z,3.87
2017-11-26T08:11:15.497Z,3.8
2017-11-26T08:11:40.966Z,3.87
2017-11-26T08:12:06.475Z,3.91
2017-11-26T08:12:31.956Z,3.84
2017-11-26T08:12:57.425Z,3.81
2017-11-26T08:13:22.921Z,3.83
2017-11-26T08:13:48.386Z,3.91
2017-11-26T08:14:13.876Z,3.86
2017-11-26T08:14:39.358Z,3.88
2017-11-26T08:15:04.878Z,3.83
2017-11-26T08:15:30.347Z,3.86
2017-11-26T08:15:55.866Z,3.86
2017-11-26T08:16:21.324Z,3.94
2017-11-26T08:16:46.847Z,3.87
2017-11-26T08:17:12.374Z,3.95
2017-11-26T08:17:37.853Z,3.96
2017-11-26T08:18:03.353Z,3.98
2017-11-26T08:18:28.839Z,4.02
2017-11-26T08:18:54.336Z,3.95
2017-11-26T08:19:19.845Z,3.96
2017-11-26T08:19:45.381Z,3.96
2017-11-26T08:20:10.860Z,4.01
2017-11-26T08:20:36.379Z,3.95
2017-11-26T08:21:01.839Z,4.01
2017-11-26T08:21:27.327Z,4.08
2017-11-26T08:21:52.830Z,4.02
2017-11-26T08:22:18.277Z,4.16
2017-11-26T08:22:43.770Z,4.13
2017-11-26T08:23:09.238Z,4.17
2017-11-26T08:23:34.747Z,4.22
2017-11-26T08:24:00.211Z,4.2
2017-11-26T08:24:25.696Z,4.17
2017-11-26T08:24:51.196Z,4.19
2017-11-26T08:25:16.662Z,4.2
2017-11-26T08:25:42.144Z,4.3
2017-11-26T08:26:07.619Z,4.31
2017-11-26T08:26:33.068Z,4.28
2017-11-26T08:26:58.574Z,4.35
2017-11-26T08:27:24.135Z,4.35
2017-11-26T08:27:49.641Z,4.35
2017-11-26T08:28:15.068Z,4.3
2017-11-26T08:28:40.578Z,4.35
2017-11-26T08:29:06.011Z,4.34
2017-11-26T08:29:31.508Z,4.32
2017-11-26T08:29:56.982Z,4.42
2017-11-26T08:30:22.447Z,4.4
2017-11-26T08:30:47.925Z,4.38
2017-11-26T08:31:13.471Z,4.42
2017-11-26T08:31:38.894Z,4.37
2017-11-26T08:32:04.436Z,4.4
2017-11-26T08:32:29.954Z,4.42
2017-11-26T08:32:55.449Z,4.35
2017-11-26T08:33:20.908Z,4.44
2017-11-26T08:33:46.392Z,4.4
2017-11-26T08:34:11.936Z,4.32
2017-11-26T08:34:37.409Z,4.38
2017-11-26T08:35:02.843Z,4.41
2017-11-26T08:35:28.421Z,4.38
2017-11-26T08:35:53.926Z,4.41
2017-11-26T08:36:19.408Z,4.38
2017-11-26T08:36:44.901Z,4.44
2017-11-26T08:37:10.404Z,4.38
2017-11-26T08:37:35.877Z,4.34
2017-11-26T08:38:01.355Z,4.34
2017-11-26T08:38:26.821Z,4.44
2017-11-26T08:38:52.398Z,4.38
2017-11-26T08:39:17.870Z,4.34
2017-11-26T08:39:43.349Z,4.38
2017-11-26T08:40:08.870Z,4.37
2017-11-26T08:40:34.357Z,4.42
2017-11-26T08:40:59.837Z,4.37
2017-11-26T08:41:25.315Z,4.31
2017-11-26T08:41:50.800Z,4.34
2017-11-26T08:42:16.284Z,4.37
2017-11-26T08:42:41.731Z,4.31
2017-11-26T08:43:07.209Z,4.37
2017-11-26T08:43:32.714Z,4.38
2017-11-26T08:43:58.147Z,4.4
2017-11-26T08:44:23.681Z,4.34
2017-11-26T08:44:49.208Z,4.41
2017-11-26T08:45:14.723Z,4.41
2017-11-26T08:45:40.223Z,4.41
2017-11-26T08:46:05.675Z,4.34
2017-11-26T08:46:31.163Z,4.44
2017-11-26T08:46:56.625Z,4.44
2017-11-26T08:47:22.157Z,4.34
2017-11-26T08:47:47.613Z,4.38
2017-11-26T08:48:13.081Z,4.41
2017-11-26T08:48:38.697Z,4.35
2017-11-26T08:49:04.194Z,4.45
2017-11-26T08:49:29.703Z,4.44
2017-11-26T08:49:55.288Z,4.45
2017-11-26T08:50:20.778Z,4.45
2017-11-26T08:50:46.255Z,4.49
2017-11-26T08:51:11.743Z,4.5
2017-11-26T08:51:37.245Z,4.5
2017-11-26T08:52:02.745Z,4.41
2017-11-26T08:52:28.213Z,4.45
2017-11-26T08:52:53.689Z,4.49
2017-11-26T08:53:19.197Z,4.52
2017-11-26T08:53:44.676Z,4.59
2017-11-26T08:54:10.250Z,4.59
2017-11-26T08:54:35.709Z,4.59
2017-11-26T08:55:01.154Z,4.58
2017-11-26T08:55:26.630Z,4.53
2017-11-26T08:55:52.090Z,4.63
2017-11-26T08:56:17.610Z,4.59
2017-11-26T08:56:43.245Z,4.66
2017-11-26T08:57:08.819Z,4.62
2017-11-26T08:57:34.192Z,4.68
2017-11-26T08:57:59.698Z,4.63
2017-11-26T08:58:25.195Z,4.7
2017-11-26T08:58:50.667Z,4.63
2017-11-26T08:59:16.142Z,4.66
2017-11-26T08:59:41.606Z,4.62
2017-11-26T09:00:07.209Z,4.66
2017-11-26T09:00:32.665Z,4.73
2017-11-26T09:00:58.223Z,4.6
2017-11-26T09:01:23.698Z,4.6
2017-11-26T09:01:49.148Z,4.68
2017-11-26T09:02:14.664Z,4.66
2017-11-26T09:02:40.193Z,4.67
2017-11-26T09:03:05.659Z,4.73
2017-11-26T09:03:31.093Z,4.7
2017-11-26T09:03:56.555Z,4.78
2017-11-26T09:04:22.084Z,4.73
2017-11-26T09:04:47.582Z,4.75
2017-11-26T09:05:13.047Z,4.71
2017-11-26T09:05:38.577Z,4.73
2017-11-26T09:06:04.053Z,4.84
2017-11-26T09:06:29.535Z,4.84
2017-11-26T09:06:55.035Z,4.87
2017-11-26T09:07:20.550Z,4.86
2017-11-26T09:07:45.962Z,4.77
2017-11-26T09:08:11.458Z,4.8
2017-11-26T09:08:36.939Z,4.78
2017-11-26T09:09:02.419Z,4.8
2017-11-26T09:09:27.865Z,4.8
2017-11-26T09:09:53.363Z,4.8
2017-11-26T09:10:18.845Z,4.9
2017-11-26T09:11:22.528Z,4.93
2017-11-26T09:11:48.020Z,4.84
2017-11-26T09:12:13.528Z,4.94
2017-11-26T09:12:39.004Z,4.9
2017-11-26T09:13:04.460Z,4.92
2017-11-26T09:13:29.910Z,4.96
2017-11-26T09:13:55.414Z,4.93
2017-11-26T09:14:20.874Z,4.9
2017-11-26T09:14:46.388Z,4.89
2017-11-26T09:15:11.884Z,4.87
2017-11-26T09:15:37.350Z,4.92
2017-11-26T09:16:02.873Z,4.99
2017-11-26T09:16:28.317Z,4.93
2017-11-26T09:16:53.797Z,4.97
2017-11-26T09:17:19.284Z,4.96
2017-11-26T09:17:44.771Z,4.99
2017-11-26T09:18:10.286Z,4.93
2017-11-26T09:18:35.763Z,4.96
2017-11-26T09:19:01.192Z,4.92
2017-11-26T09:19:26.662Z,4.94
2017-11-26T09:19:52.203Z,4.99
2017-11-26T09:20:17.731Z,4.96
2017-11-26T09:20:43.228Z,4.94
2017-11-26T09:21:08.694Z,4.97
2017-11-26T09:21:34.208Z,5.04
2017-11-26T09:21:59.681Z,5
2017-11-26T09:22:25.163Z,5
2017-11-26T09:22:50.605Z,5.04
2017-11-26T09:23:16.093Z,5.05
2017-11-26T09:23:41.565Z,5.05
2017-11-26T09:24:07.037Z,4.99
2017-11-26T09:24:32.517Z,5.05
2017-11-26T09:24:58.036Z,5.1
2017-11-26T09:25:23.513Z,5.05
2017-11-26T09:25:48.997Z,5.07
2017-11-26T09:26:14.494Z,4.99
2017-11-26T09:26:39.980Z,5.08
2017-11-26T09:27:43.583Z,5.1
2017-11-26T09:28:09.068Z,5.11
2017-11-26T09:28:34.533Z,5.1
2017-11-26T09:29:00.054Z,5.08
2017-11-26T09:29:25.539Z,5.12
2017-11-26T09:29:51.025Z,5.11
2017-11-26T09:30:16.478Z,5.08
2017-11-26T09:30:41.966Z,5.17
2017-11-26T09:31:07.442Z,5.17
2017-11-26T09:31:32.960Z,5.17
2017-11-26T09:31:58.468Z,5.14
2017-11-26T09:32:23.945Z,5.17
2017-11-26T09:32:49.410Z,5.2
2017-11-26T09:33:14.880Z,5.15
2017-11-26T09:33:40.378Z,5.12
2017-11-26T09:34:05.833Z,5.21
2017-11-26T09:34:31.375Z,5.25
2017-11-26T09:34:56.847Z,5.29
2017-11-26T09:35:22.375Z,5.25
2017-11-26T09:35:47.835Z,5.21
2017-11-26T09:36:13.328Z,5.2
2017-11-26T09:36:38.859Z,5.21
2017-11-26T09:37:04.361Z,5.18
2017-11-26T09:37:29.830Z,5.2
2017-11-26T09:37:55.279Z,5.26
2017-11-26T09:38:20.754Z,5.21
2017-11-26T09:38:46.255Z,5.26
2017-11-26T09:39:11.729Z,5.21
2017-11-26T09:39:37.310Z,5.2
2017-11-26T09:40:02.746Z,5.2
2017-11-26T09:40:28.206Z,5.21
2017-11-26T09:40:53.691Z,5.23
2017-11-26T09:41:19.234Z,5.15
2017-11-26T09:41:44.667Z,5.21
2017-11-26T09:42:10.222Z,5.18
2017-11-26T09:42:35.690Z,5.23
2017-11-26T09:43:01.172Z,5.14
2017-11-26T09:43:26.647Z,5.15
2017-11-26T09:43:52.139Z,5.15
2017-11-26T09:44:17.602Z,5.14
2017-11-26T09:44:43.132Z,5.15
2017-11-26T09:45:08.598Z,5.17
2017-11-26T09:45:34.080Z,5.17
2017-11-26T09:45:59.562Z,5.17
2017-11-26T09:46:25.058Z,5.14
2017-11-26T09:46:50.597Z,5.18
2017-11-26T09:47:16.085Z,5.15
2017-11-26T09:47:41.567Z,5.11
2017-11-26T09:48:07.074Z,5.17
2017-11-26T09:48:32.510Z,5.23
2017-11-26T09:48:57.979Z,5.25
2017-11-26T09:49:23.450Z,5.26
2017-11-26T09:49:48.996Z,5.28
2017-11-26T09:50:14.512Z,5.25
2017-11-26T09:50:39.989Z,5.29
2017-11-26T09:51:05.430Z,5.23
2017-11-26T09:51:30.898Z,5.26
2017-11-26T09:51:56.368Z,5.32
2017-11-26T09:52:21.824Z,5.32
2017-11-26T09:52:47.343Z,5.3
2017-11-26T09:53:12.829Z,5.29
2017-11-26T09:53:38.323Z,5.35
2017-11-26T09:54:03.822Z,5.5
2017-11-26T09:54:29.297Z,5.48
2017-11-26T09:54:54.726Z,5.5
2017-11-26T09:55:20.214Z,5.51
2017-11-26T09:55:45.701Z,5.54
2017-11-26T09:56:11.198Z,5.53
2017-11-26T09:56:36.664Z,5.57
2017-11-26T09:57:02.174Z,5.57
2017-11-26T09:57:27.715Z,5.51
2017-11-26T09:57:53.200Z,5.59
2017-11-26T09:58:18.681Z,5.61
2017-11-26T09:58:44.209Z,5.59
2017-11-26T09:59:09.678Z,5.53
2017-11-26T09:59:35.210Z,5.57
2017-11-26T10:00:00.697Z,5.56
2017-11-26T10:00:26.211Z,5.57
2017-11-26T10:00:51.703Z,5.57
2017-11-26T10:01:17.162Z,5.65
2017-11-26T10:01:42.642Z,5.59
2017-11-26T10:02:08.128Z,5.64
2017-11-26T10:02:33.594Z,5.62
2017-11-26T10:02:59.094Z,5.61
2017-11-26T10:03:24.560Z,5.61
2017-11-26T10:03:50.040Z,5.66
2017-11-26T10:04:15.511Z,5.62
2017-11-26T10:04:40.957Z,5.53
2017-11-26T10:05:06.470Z,5.59
2017-11-26T10:05:31.958Z,5.62
2017-11-26T10:05:57.456Z,5.48
2017-11-26T10:06:22.922Z,5.57
2017-11-26T10:06:48.526Z,5.53
2017-11-26T10:07:13.956Z,5.56
2017-11-26T10:07:39.450Z,5.62
2017-11-26T10:08:04.949Z,5.57
2017-11-26T10:08:30.422Z,5.54
2017-11-26T10:08:55.879Z,5.54
2017-11-26T10:09:21.351Z,5.61
2017-11-26T10:09:46.810Z,5.54
2017-11-26T10:10:45.351Z,5.57
2017-11-26T10:11:10.879Z,5.54
2017-11-26T10:11:36.513Z,5.51
2017-11-26T10:12:40.117Z,5.51
2017-11-26T10:13:05.607Z,5.56
2017-11-26T10:13:31.061Z,5.59
2017-11-26T10:13:56.560Z,5.61
2017-11-26T10:14:22.055Z,5.59
2017-11-26T10:14:47.626Z,5.51
2017-11-26T10:15:13.107Z,5.51
2017-11-26T10:15:38.560Z,5.51
2017-11-26T10:16:04.017Z,5.51
2017-11-26T10:16:29.493Z,5.57
2017-11-26T10:16:54.974Z,5.53
2017-11-26T10:17:20.443Z,5.56
2017-11-26T10:17:45.930Z,5.61
2017-11-26T10:18:11.393Z,5.51
2017-11-26T10:18:36.849Z,5.51
2017-11-26T10:19:02.329Z,5.54
2017-11-26T10:19:27.837Z,5.53
2017-11-26T10:19:53.290Z,5.62
2017-11-26T10:20:18.798Z,5.54
2017-11-26T10:20:44.255Z,5.53
2017-11-26T10:21:09.767Z,5.51
2017-11-26T10:21:35.253Z,5.59
2017-11-26T10:22:00.726Z,5.64
2017-11-26T10:22:26.183Z,5.54
2017-11-26T10:22:51.654Z,5.56
2017-11-26T10:23:17.112Z,5.56
2017-11-26T10:23:42.581Z,5.57
2017-11-26T10:24:08.048Z,5.54
2017-11-26T10:24:33.529Z,5.56
2017-11-26T10:24:59.034Z,5.57
2017-11-26T10:25:24.496Z,5.56
2017-11-26T10:25:49.968Z,5.47
2017-11-26T10:26:15.454Z,5.44
2017-11-26T10:26:40.916Z,5.56
2017-11-26T10:27:06.448Z,5.51
2017-11-26T10:27:31.914Z,5.5
2017-11-26T10:27:57.374Z,5.44
2017-11-26T10:28:22.859Z,5.46
2017-11-26T10:28:48.363Z,5.48
2017-11-26T10:29:13.837Z,5.46
2017-11-26T10:29:39.325Z,5.41
2017-11-26T10:30:04.818Z,5.43
2017-11-26T10:30:30.300Z,5.43
2017-11-26T10:30:55.762Z,5.43
2017-11-26T10:31:21.246Z,5.56
2017-11-26T10:31:46.700Z,5.46
2017-11-26T10:32:12.188Z,5.48
2017-11-26T10:32:37.681Z,5.46
2017-11-26T10:33:03.143Z,5.56
2017-11-26T10:33:28.644Z,5.5
2017-11-26T10:33:54.142Z,5.5
2017-11-26T10:34:19.633Z,5.48
2017-11-26T10:34:45.116Z,5.57
2017-11-26T10:35:10.585Z,5.59
2017-11-26T10:35:36.059Z,5.66
2017-11-26T10:36:01.533Z,5.51
2017-11-26T10:36:27.045Z,5.59
2017-11-26T10:36:52.506Z,5.64
2017-11-26T10:37:18.022Z,5.61
2017-11-26T10:37:43.516Z,5.62
2017-11-26T10:38:09.005Z,5.64
2017-11-26T10:38:34.497Z,5.54
2017-11-26T10:38:59.991Z,5.59
2017-11-26T10:39:25.485Z,5.69
2017-11-26T10:39:50.956Z,5.64
2017-11-26T10:40:16.440Z,5.65
2017-11-26T10:40:41.942Z,5.57
2017-11-26T10:41:07.417Z,5.57
2017-11-26T10:41:32.926Z,5.61
2017-11-26T10:41:58.436Z,5.65
2017-11-26T10:42:23.931Z,5.61
2017-11-26T10:42:49.415Z,5.59
2017-11-26T10:43:14.924Z,5.62
2017-11-26T10:43:40.415Z,5.68